This is the latest recevied weather packets stored in our database for station/object E24CR-1. If no packets are shown the sender has not sent any weather packets the latest 10 day(s).
| Time | Temp. | Humidity | Pressure | Rain* | Wind** | Luminosity | Snow |
|---|---|---|---|---|---|---|---|
| 1777809480 | 32.22° C | 41% | 948 hPa | - | - | 0 W/m² | - |
| 1777808856 | 32.22° C | 41% | 948 hPa | - | - | 0 W/m² | - |
| 1777808232 | 32.78° C | 40% | 947 hPa | - | - | 0 W/m² | - |
| 1777807608 | 33.33° C | 38% | 947 hPa | - | - | 0 W/m² | - |
| 1777806983 | 33.33° C | 37% | 947 hPa | - | - | 0 W/m² | - |
| 1777806359 | 33.89° C | 37% | 947 hPa | - | - | 0 W/m² | - |
| 1777805735 | 33.89° C | 37% | 947 hPa | - | - | 0 W/m² | - |
| 1777805111 | 33.89° C | 38% | 947 hPa | - | - | 0 W/m² | - |
| 1777804487 | 33.89° C | 38% | 947 hPa | - | - | 0 W/m² | - |
| 1777803863 | 33.33° C | 37% | 947 hPa | - | - | 0 W/m² | - |
| 1777803239 | 35° C | 34% | 947 hPa | - | - | 0 W/m² | - |
| 1777802614 | 35° C | 34% | 947 hPa | - | - | 0 W/m² | - |
| 1777801991 | 35° C | 34% | 947 hPa | - | - | 0 W/m² | - |
| 1777801366 | 35.56° C | 33% | 947 hPa | - | - | 0 W/m² | - |
| 1777800742 | 35° C | 33% | 947 hPa | - | - | 0 W/m² | - |
| 1777800118 | 35° C | 33% | 947 hPa | - | - | 0 W/m² | - |
| 1777799494 | 36.11° C | 31% | 947 hPa | - | - | 0 W/m² | - |
| 1777798870 | 35° C | 33% | 948 hPa | - | - | 0 W/m² | - |
| 1777798246 | 35° C | 33% | 948 hPa | - | - | 0 W/m² | - |
| 1777797621 | 36.11° C | 31% | 948 hPa | - | - | 0 W/m² | - |
| 1777796997 | 36.67° C | 30% | 948 hPa | - | - | 0 W/m² | - |
| 1777796373 | 36.67° C | 30% | 948 hPa | - | - | 0 W/m² | - |
| 1777795749 | 35.56° C | 32% | 948 hPa | - | - | 0 W/m² | - |
| 1777795125 | 36.67° C | 31% | 949 hPa | - | - | 0 W/m² | - |
| 1777794501 | 37.22° C | 29% | 949 hPa | - | - | 0 W/m² | - |
* Rain since midnight (hover to see other rain measurements)
** Current wind speed in m/s (hover to see current wind gust speed)